Latest Weather Observations for Rolleston Airport

IDQ60801

Issued at 7:05 pm EST Monday 15 September 2014 (issued every 30 minutes, with the page automatically refreshed every 10 minutes)

About weather observations | Map of weather stations | Latest weather observations for QLD | Other Formats
Station Details ID: 035129 Name: ROLLESTON AIRPORT Lat: -24.46 Lon: 148.63 Height: 219.45 m
Data from the previous 72 hours. | See also: Recent months at Rolleston Airport
Date/Time
EST
Temp
°C
App
Temp
°C
Dew
Point
Rel
Hum
%
Delta-T
°C
Wind Press
QNH
hPa
Press
MSL
hPa
Rain
since 9 am
mm
Dir
 
Spd
km/h
Gust
km/h
Spd
kts
Gust
kts
15/07:00pm 22.5 21.0 8.6 41 7.4 NNE 6 7 3 4 1015.6 1015.0 0.0
15/06:30pm 23.6 21.8 8.1 37 8.3 NE 7 9 4 5 1015.3 1014.7 0.0
15/06:00pm 24.6 22.6 7.3 33 9.2 NNE 7 9 4 5 1015.2 1014.5 0.0
15/05:30pm 26.2 23.8 5.2 26 10.8 N 7 13 4 7 1015.0 1014.3 0.0
15/05:00pm 26.4 23.7 5.4 26 10.9 N 9 13 5 7 1014.8 1014.1 0.0
15/04:30pm 27.1 24.5 4.2 23 11.7 NNE 7 13 4 7 1014.8 1014.1 0.0
15/04:00pm 27.5 24.7 5.1 24 11.6 N 9 17 5 9 1014.7 1014.0 0.0
15/03:30pm 27.6 25.6 4.6 23 11.8 W 4 7 2 4 1014.8 1014.1 0.0
15/03:00pm 27.3 25.5 5.6 25 11.3 E 4 9 2 5 1015.1 1014.4 0.0
15/02:30pm 27.8 25.6 6.0 25 11.5 NNE 7 15 4 8 1015.3 1014.7 0.0
15/02:00pm 26.7 24.7 6.2 27 10.8 NW 6 9 3 5 1015.6 1015.0 0.0
15/01:30pm 26.4 24.4 6.9 29 10.4 NNW 7 19 4 10 1016.1 1015.5 0.0
15/01:00pm 26.6 24.1 6.6 28 10.6 NNE 9 17 5 9 1016.8 1016.1 0.0
15/12:30pm 25.6 24.5 9.8 37 8.8 N 6 13 3 7 1017.3 1016.6 0.0
15/12:00pm 24.6 23.5 10.5 41 7.9 NNW 7 13 4 7 1017.9 1017.2 0.0
15/11:30am 24.0 22.4 10.3 42 7.6 NW 9 15 5 8 1018.6 1017.9 0.0
15/11:00am 23.4 22.2 11.5 47 6.7 N 9 17 5 9 1019.1 1018.4 0.0
15/10:30am 23.1 21.3 10.9 46 6.8 N 11 19 6 10 1019.5 1018.9 0.0
15/10:00am 21.9 21.7 13.0 57 5.1 NW 6 13 3 7 1019.9 1019.3 0.0
15/09:30am 20.9 21.0 13.8 64 4.1 NNE 6 9 3 5 1020.2 1019.6 0.0
15/09:00am 19.6 19.5 14.0 70 3.2 NNW 7 15 4 8 1020.4 1019.8 0.2
15/08:30am 18.7 18.5 14.6 77 2.4 NNW 9 15 5 8 1020.4 1019.8 0.2
15/08:00am 16.5 16.7 13.0 80 2.0 W 4 6 2 3 1020.5 1019.9 0.2
15/07:30am 15.3 16.1 12.4 83 1.6 CALM 0 0 0 0 1020.2 1019.6 0.2
15/07:00am 13.7 14.2 11.6 87 1.1 CALM 0 0 0 0 1020.1 1019.5 0.2
15/06:30am 12.4 12.8 11.3 93 0.6 CALM 0 0 0 0 1019.9 1019.3 0.2
15/06:00am 12.4 12.7 11.0 91 0.7 SW 0 0 0 0 1019.8 1019.2 0.2
15/05:30am 12.2 12.4 10.6 90 0.8 CALM 0 0 0 0 1019.6 1019.0 0.2
15/05:00am 12.0 12.1 10.2 89 0.9 CALM 0 0 0 0 1019.5 1018.9 0.2
15/04:30am 12.6 12.8 10.7 88 1.0 CALM 0 0 0 0 1019.2 1018.5 0.2
15/04:00am 12.5 12.6 10.2 86 1.2 CALM 0 0 0 0 1018.9 1018.2 0.2
15/03:30am 12.8 12.8 9.8 82 1.6 CALM 0 0 0 0 1018.8 1018.1 0.2
15/03:00am 13.1 13.2 10.1 82 1.6 CALM 0 0 0 0 1018.8 1018.1 0.2
15/02:30am 12.2 12.1 9.4 83 1.4 CALM 0 0 0 0 1018.9 1018.2 0.2
15/02:00am 12.9 12.8 9.5 80 1.7 CALM 0 0 0 0 1019.2 1018.5 0.2
15/01:30am 13.9 13.6 10.1 78 2.0 WNW 2 4 1 2 1019.1 1018.4 0.2
15/01:00am 13.6 13.5 9.5 76 2.1 CALM 0 0 0 0 1019.2 1018.5 0.2
15/12:30am 14.3 13.4 9.3 72 2.6 S 4 6 2 3 1019.2 1018.5 0.2
15/12:00am 15.3 14.7 9.0 66 3.3 W 2 4 1 2 1019.2 1018.5 0.2
 
Date/Time
EST
Temp
°C
App
Temp
°C
Dew
Point
Rel
Hum
%
Delta-T
°C
Wind Press
QNH
hPa
Press
MSL
hPa
Rain
since 9 am
mm
Dir
 
Spd
km/h
Gust
km/h
Spd
kts
Gust
kts
14/11:30pm 15.3 14.2 10.1 71 2.7 WSW 6 7 3 4 1019.2 1018.5 0.2
14/11:00pm 15.3 14.7 10.3 72 2.6 NW 4 6 2 3 1019.1 1018.4 0.2
14/10:30pm 15.4 14.8 11.6 78 2.1 N 6 17 3 9 1019.1 1018.4 0.2
14/10:00pm 16.7 17.1 11.4 71 2.9 CALM 0 4 0 2 1018.7 1018.0 0.2
14/09:30pm 16.8 16.8 9.7 63 3.8 CALM 0 0 0 0 1018.8 1018.1 0.2
14/09:00pm 18.6 17.4 10.4 59 4.4 NE 7 9 4 5 1018.9 1018.2 0.2
14/08:30pm 18.5 18.8 10.8 61 4.2 CALM 0 0 0 0 1018.9 1018.2 0.2
14/08:00pm 20.4 20.0 8.4 46 6.3 CALM 0 0 0 0 1018.8 1018.1 0.2
14/07:30pm 19.6 19.7 10.3 55 5.1 CALM 0 0 0 0 1018.7 1018.0 0.2
14/07:00pm 20.8 21.3 11.7 56 5.1 CALM 0 0 0 0 1018.3 1017.6 0.2
14/06:30pm 22.0 21.9 9.5 45 6.8 CALM 0 0 0 0 1018.1 1017.4 0.2
14/06:00pm 23.3 22.0 7.8 37 8.2 N 4 6 2 3 1017.8 1017.1 0.2
14/05:30pm 24.6 22.6 6.4 31 9.5 ESE 6 9 3 5 1017.6 1016.9 0.2
14/05:00pm 25.1 23.4 5.8 29 10.0 ENE 4 9 2 5 1017.5 1016.8 0.2
14/04:30pm 25.1 22.9 6.3 30 9.8 NE 7 13 4 7 1017.4 1016.7 0.2
14/04:00pm 25.7 24.4 7.8 32 9.6 N 4 9 2 5 1017.5 1016.8 0.0
14/03:30pm 25.2 23.8 7.3 32 9.5 E 4 11 2 6 1017.7 1017.0 0.0
14/03:00pm 25.4 23.6 8.0 33 9.4 E 7 22 4 12 1018.2 1017.5 0.0
14/02:30pm 25.0 22.9 8.1 34 9.1 E 9 22 5 12 1018.5 1017.8 0.0
14/02:00pm 25.0 22.9 8.1 34 9.1 E 9 20 5 11 1018.9 1018.2 0.0
14/01:30pm 24.9 22.7 8.0 34 9.1 ESE 9 19 5 10 1019.4 1018.8 0.0
14/01:00pm 24.1 22.3 8.1 36 8.6 E 7 19 4 10 1019.8 1019.2 0.0
14/12:30pm 23.2 22.3 9.2 41 7.6 NNE 4 7 2 4 1020.3 1019.7 0.0
14/12:00pm 22.5 21.5 10.3 46 6.7 WSW 6 13 3 7 1020.8 1020.2 0.0
14/11:30am 22.4 21.5 11.2 49 6.3 ESE 7 15 4 8 1021.3 1020.7 0.0
14/11:00am 21.7 20.6 10.8 50 6.0 NE 7 17 4 9 1021.9 1021.2 0.0
14/10:30am 21.3 20.5 11.6 54 5.5 ENE 7 15 4 8 1022.3 1021.6 0.0
14/10:00am 20.0 19.1 11.5 58 4.7 E 7 15 4 8 1022.7 1022.0 0.0
14/09:30am 19.5 18.9 11.8 61 4.3 ESE 6 15 3 8 1022.9 1022.2 0.0
14/09:00am 18.0 17.2 11.6 66 3.5 S 7 11 4 6 1022.8 1022.1 0.2
14/08:30am 16.8 16.3 12.1 74 2.6 S 6 9 3 5 1022.7 1022.0 0.2
14/08:00am 15.0 14.8 11.8 81 1.7 SSW 4 7 2 4 1022.5 1021.8 0.2
14/07:30am 13.4 13.1 11.3 87 1.1 SSW 4 6 2 3 1022.4 1021.7 0.2
14/07:00am 12.1 12.1 11.0 93 0.6 S 2 4 1 2 1022.1 1021.4 0.2
14/06:30am 10.7 10.0 10.2 97 0.3 S 4 6 2 3 1021.8 1021.1 0.2
14/06:00am 10.2 9.0 9.6 96 0.3 S 6 7 3 4 1021.3 1020.7 0.2
14/05:30am 10.3 9.4 9.4 94 0.5 S 4 6 2 3 1021.1 1020.5 0.2
14/05:00am 10.7 9.6 9.8 94 0.5 S 6 7 3 4 1020.7 1020.1 0.2
14/04:30am 10.7 8.6 9.9 95 0.4 SE 11 13 6 7 1020.3 1019.7 0.2
14/04:00am 10.6 9.3 9.8 95 0.4 S 7 9 4 5 1020.3 1019.7 0.2
14/03:30am 11.0 9.9 9.9 93 0.6 SSE 6 7 3 4 1020.4 1019.8 0.2
14/03:00am 11.4 10.4 10.3 93 0.6 SSE 6 9 3 5 1020.5 1019.9 0.2
14/02:30am 11.5 11.3 10.4 93 0.6 S 2 6 1 3 1020.7 1020.1 0.2
14/02:00am 11.7 11.0 10.1 90 0.8 S 4 4 2 2 1021.0 1020.4 0.2
14/01:30am 13.0 13.4 11.2 89 1.0 CALM 0 4 0 2 1021.1 1020.5 0.2
14/01:00am 12.4 10.9 10.5 88 1.0 SE 9 9 5 5 1021.0 1020.4 0.2
14/12:30am 13.6 12.9 11.3 86 1.2 SSE 6 7 3 4 1021.5 1020.8 0.2
14/12:00am 13.7 13.8 11.4 86 1.2 SSE 2 2 1 1 1021.8 1021.1 0.2
 
Date/Time
EST
Temp
°C
App
Temp
°C
Dew
Point
Rel
Hum
%
Delta-T
°C
Wind Press
QNH
hPa
Press
MSL
hPa
Rain
since 9 am
mm
Dir
 
Spd
km/h
Gust
km/h
Spd
kts
Gust
kts
13/11:30pm 14.0 13.7 11.3 84 1.5 SSE 4 6 2 3 1022.0 1021.3 0.2
13/11:00pm 13.6 13.3 11.3 86 1.2 SSW 4 6 2 3 1022.1 1021.4 0.2
13/10:30pm 13.8 13.4 11.1 84 1.4 WSW 4 7 2 4 1022.2 1021.5 0.2
13/10:00pm 14.7 14.9 12.0 84 1.5 NW 2 6 1 3 1021.9 1021.2 0.2
13/09:30pm 15.0 15.1 11.4 79 1.9 WSW 2 4 1 2 1021.9 1021.2 0.2
13/09:00pm 15.4 14.8 11.6 78 2.1 SSW 6 6 3 3 1021.8 1021.1 0.2
13/08:30pm 16.3 15.5 11.7 74 2.5 E 7 11 4 6 1021.5 1020.8 0.2
13/08:00pm 17.4 16.0 12.3 72 2.8 E 11 13 6 7 1021.1 1020.5 0.2
13/07:30pm 17.7 16.3 12.2 70 3.1 ENE 11 13 6 7 1021.0 1020.4 0.2
13/07:00pm 18.3 16.9 12.1 67 3.5 E 11 13 6 7 1020.9 1020.3 0.2
13/06:30pm 18.8 17.3 11.9 64 3.9 E 11 13 6 7 1020.8 1020.2 0.2
13/06:00pm 19.9 18.3 11.7 59 4.6 E 11 15 6 8 1020.5 1019.9 0.2
13/05:30pm 21.1 19.3 12.0 56 5.1 ESE 13 19 7 10 1020.2 1019.6 0.2
13/05:00pm 21.9 19.8 11.0 50 6.1 ESE 13 19 7 10 1020.1 1019.5 0.2
13/04:30pm 22.1 19.9 10.9 49 6.2 ESE 13 17 7 9 1020.0 1019.4 0.2
13/04:00pm 22.2 19.1 11.6 51 6.0 ESE 19 24 10 13 1020.0 1019.4 0.2
13/03:30pm 21.3 17.7 10.5 50 6.0 ESE 20 30 11 16 1020.1 1019.5 0.2
13/03:00pm 22.7 19.2 10.8 47 6.6 SE 20 30 11 16 1020.1 1019.5 0.2
13/02:30pm 23.7 20.3 10.7 44 7.3 ESE 19 24 10 13 1020.2 1019.6 0.2
13/02:00pm 23.8 21.6 7.8 36 8.5 ENE 9 15 5 8 1020.5 1019.9 0.2
13/01:30pm 23.2 20.7 9.6 42 7.5 NE 13 22 7 12 1020.8 1020.2 0.2
13/01:00pm 23.2 20.8 9.9 43 7.3 NE 13 22 7 12 1021.2 1020.6 0.2
13/12:30pm 22.9 19.9 10.7 46 6.8 NNE 17 26 9 14 1021.7 1021.0 0.0
13/12:00pm 22.2 19.1 11.6 51 6.0 NE 19 26 10 14 1022.3 1021.6 0.0
13/11:30am 21.6 19.9 12.5 56 5.2 NE 13 22 7 12 1022.8 1022.1 0.0
13/11:00am 20.4 19.1 12.6 61 4.4 NE 11 15 6 8 1023.3 1022.7 0.0
13/10:30am 19.3 19.3 13.5 69 3.3 NE 6 11 3 6 1023.4 1022.8 0.0
13/10:00am 18.0 18.8 12.7 71 3.0 CALM 0 0 0 0 1023.8 1023.2 0.0
13/09:30am 17.2 17.0 13.1 77 2.3 SE 6 7 3 4 1023.4 1022.8 0.0
13/09:00am 16.6 15.9 13.3 81 1.9 S 9 11 5 6 1023.6 1023.0 17.2
13/08:30am 16.4 16.3 13.9 85 1.4 SSE 7 11 4 6 1023.1 1022.4 17.2
13/08:00am 16.2 12.1 12.7 80 1.9 E 26 43 14 23 1021.9 1021.2 17.2
13/07:30am 15.4 9.8 13.4 88 1.1 E 35 48 19 26 1021.2 1020.6 17.2
13/07:15am 15.5 11.5 14.2 92 0.7 E 28 39 15 21 1021.6 1020.9 17.0
13/07:00am 15.6 14.2 14.5 93 0.6 E 15 19 8 10 1022.7 1022.0 16.4
13/06:30am 15.6 14.7 14.8 95 0.5 ESE 13 15 7 8 1022.9 1022.2 15.4
13/06:00am 15.6 15.8 14.8 95 0.5 SE 7 9 4 5 1022.7 1022.0 14.6
13/05:30am 15.7 14.7 14.7 94 0.6 ESE 13 17 7 9 1022.3 1021.6 12.4
13/05:00am 15.9 16.3 14.8 93 0.6 S 6 11 3 6 1021.7 1021.0 11.0
13/04:30am 15.9 15.1 15.1 95 0.5 WSW 13 20 7 11 1020.8 1020.2 10.8
13/04:00am 16.3 16.8 15.5 95 0.5 SW 7 9 4 5 1020.8 1020.2 9.4
13/03:30am 16.6 17.3 15.6 94 0.6 N 6 11 3 6 1021.0 1020.4 7.0
13/03:00am 16.9 18.6 15.2 90 1.0 CALM 0 0 0 0 1020.5 1019.9 5.0
13/02:30am 16.2 17.0 14.9 92 0.8 WNW 4 6 2 3 1020.7 1020.1 4.4
13/02:00am 16.0 14.5 14.2 89 1.0 NNW 15 20 8 11 1020.9 1020.3 3.0
13/01:30am 16.3 15.7 14.5 89 1.0 NNW 11 17 6 9 1021.0 1020.4 2.2
13/01:00am 17.7 17.2 14.8 83 1.7 N 11 20 6 11 1020.1 1019.5 0.8
13/12:30am 21.4 19.9 9.0 45 6.7 N 7 9 4 5 1019.8 1019.2 0.0
13/12:00am 21.9 20.1 8.1 41 7.3 N 7 11 4 6 1019.5 1018.9 0.0
 
Date/Time
EST
Temp
°C
App
Temp
°C
Dew
Point
Rel
Hum
%
Delta-T
°C
Wind Press
QNH
hPa
Press
MSL
hPa
Rain
since 9 am
mm
Dir
 
Spd
km/h
Gust
km/h
Spd
kts
Gust
kts
12/11:30pm 22.2 19.9 5.6 34 8.4 NNE 7 9 4 5 1019.7 1019.1 0.0
12/11:00pm 21.8 19.9 3.0 29 9.0 NNE 2 6 1 3 1019.5 1018.9 0.0
12/10:30pm 21.2 18.4 3.0 30 8.7 SE 7 9 4 5 1019.1 1018.4 0.0
12/10:00pm 21.9 18.9 2.1 27 9.3 ESE 7 11 4 6 1018.9 1018.2 0.0
12/09:30pm 21.2 18.5 2.5 29 8.9 SSE 6 6 3 3 1018.2 1017.5 0.0
12/09:00pm 21.6 18.4 2.8 29 9.0 SSE 9 11 5 6 1018.0 1017.3 0.0
12/08:30pm 21.2 17.2 3.0 30 8.7 SSE 13 13 7 7 1017.6 1016.9 0.0
12/08:00pm 22.9 19.9 1.9 25 9.9 SSE 7 9 4 5 1017.5 1016.8 0.0
12/07:30pm 23.6 20.9 2.4 25 10.2 S 6 7 3 4 1017.4 1016.7 0.0

Other Formats:

Comma delimited format used in spreadsheet applications
http://www.bom.gov.au/fwo/IDQ60801/IDQ60801.94396.axf

JavaScript Object Notation format (JSON) in row-major order
http://www.bom.gov.au/fwo/IDQ60801/IDQ60801.94396.json